Terminal Aerodrome Forecast
Issued by NWS

Home | Current Version | Previous Version | Graphics & Text | Print | Product List | Glossary On
Versions: 1 2 3 4 5 6 7 8 9 10 11 12 13 14 15 16 17 18 19
000
FTUS43 KMPX 230000 CCA
TAFRWF
TAF COR
KRWF 230003Z 2300/2324 14010KT 4SM BR SCT007
     FM230600 19008KT 3SM BR SCT005
     FM231200 26007KT 4SM BR SCT005 OVC050
     FM231600 31009KT P6SM BKN120=

USA.gov is the U.S. government's official web portal to all federal, state and local government web resources and services.